Wetterdaten: Woche 19.01.09 - 25.01.09 (KW4)
Datum Zeit Temp. A. Feuchte A. Luftdruck Regen Wind Richtung Taupunkt Windchill Windben
19.01.2009 00:00 -2,8 C 93 % 1010,3 hPa 0,0 l/m 0,4 km/h (0 Bft) N -3,8 C -2,8 C 4,0 km/h (1 Bft)
19.01.2009 01:00 -2,9 C 93 % 1010,3 hPa 0,0 l/m 1,7 km/h (1 Bft) O -3,8 C -2,9 C 7,2 km/h (2 Bft)
19.01.2009 02:00 -1,5 C 94 % 1010,4 hPa 0,0 l/m 4,8 km/h (1 Bft) NO -2,4 C -2,5 C 16,1 km/h (3 Bft)
19.01.2009 03:00 5,3 C 76 % 1009,8 hPa 0,0 l/m 14,7 km/h (3 Bft) W-NW 1,3 C -0,4 C 36,2 km/h (5 Bft)
19.01.2009 04:00 5,3 C 70 % 1010,1 hPa 0,0 l/m 21,3 km/h (4 Bft) W 0,2 C -3,2 C 44,7 km/h (6 Bft)
19.01.2009 05:00 4,3 C 74 % 1011,4 hPa 0,0 l/m 7,4 km/h (2 Bft) N-NW 0,1 C 2,8 C 18,1 km/h (3 Bft)
19.01.2009 06:00 3,1 C 76 % 1012,3 hPa 0,0 l/m 3,3 km/h (1 Bft) W-SW -0,7 C 2,8 C 10,5 km/h (2 Bft)
19.01.2009 07:00 3,9 C 69 % 1012,4 hPa 0,0 l/m 4,5 km/h (1 Bft) W-SW -1,2 C 3,4 C 12,5 km/h (3 Bft)
19.01.2009 08:00 1,7 C 73 % 1012,9 hPa 0,0 l/m 0,2 km/h (0 Bft) N -2,7 C 1,7 C 2,4 km/h (1 Bft)
19.01.2009 09:00 1,7 C 80 % 1012,2 hPa 0,0 l/m 0,1 km/h (0 Bft) N -1,4 C 1,7 C 1,2 km/h (1 Bft)
19.01.2009 10:00 3,8 C 72 % 1011,2 hPa 0,0 l/m 0,5 km/h (0 Bft) SO -0,9 C 3,8 C 3,6 km/h (1 Bft)
19.01.2009 11:00 4,5 C 67 % 1010,4 hPa 0,0 l/m 2,7 km/h (1 Bft) S-SO -1,0 C 4,5 C 10,9 km/h (2 Bft)
19.01.2009 12:00 5,0 C 67 % 1009,2 hPa 0,0 l/m 2,6 km/h (1 Bft) O-SO -0,6 C 5,0 C 10,8 km/h (2 Bft)
19.01.2009 13:00 5,8 C 63 % 1007,3 hPa 0,0 l/m 2,5 km/h (1 Bft) O -0,7 C 5,8 C 7,6 km/h (2 Bft)
19.01.2009 14:00 4,6 C 74 % 1005,3 hPa 0,0 l/m 4,8 km/h (1 Bft) SO 0,3 C 4,6 C 11,7 km/h (2 Bft)
19.01.2009 15:00 4,7 C 78 % 1004,3 hPa 0,0 l/m 2,3 km/h (1 Bft) S-SW 1,2 C 4,7 C 10,7 km/h (2 Bft)
19.01.2009 16:00 4,0 C 82 % 1003,6 hPa 0,0 l/m 1,3 km/h (1 Bft) O 1,2 C 4,0 C 6,0 km/h (2 Bft)
19.01.2009 17:00 3,6 C 84 % 1003,0 hPa 0,0 l/m 0,8 km/h (0 Bft) N 1,1 C 3,6 C 4,8 km/h (1 Bft)
19.01.2009 18:00 3,0 C 85 % 1002,5 hPa 0,0 l/m 0,9 km/h (0 Bft) O-SO 0,6 C 3,0 C 3,6 km/h (1 Bft)
19.01.2009 19:00 2,0 C 86 % 1002,1 hPa 0,0 l/m 0,0 km/h (0 Bft) N -0,2 C 2,0 C 0,4 km/h (0 Bft)
19.01.2009 20:00 0,5 C 87 % 1002,1 hPa 0,0 l/m 0,1 km/h (0 Bft) N -1,4 C 0,5 C 1,2 km/h (1 Bft)
19.01.2009 21:00 0,2 C 88 % 1001,9 hPa 0,0 l/m 0,0 km/h (0 Bft) N -1,5 C 0,2 C 0,4 km/h (0 Bft)
19.01.2009 22:00 0,4 C 90 % 1001,5 hPa 0,0 l/m 0,1 km/h (0 Bft) N -1,1 C 0,4 C 1,6 km/h (1 Bft)
19.01.2009 23:00 0,8 C 90 % 1000,9 hPa 0,0 l/m 0,1 km/h (0 Bft) N -0,6 C 0,8 C 2,0 km/h (1 Bft)
20.01.2009 00:00 1,5 C 91 % 1000,6 hPa 0,0 l/m 0,7 km/h (0 Bft) NW 0,2 C 1,5 C 4,0 km/h (1 Bft)
20.01.2009 01:00 2,0 C 92 % 1000,5 hPa 0,0 l/m 0,7 km/h (0 Bft) N 0,8 C 2,0 C 4,4 km/h (1 Bft)
20.01.2009 02:00 2,0 C 92 % 1000,3 hPa 0,0 l/m 0,2 km/h (0 Bft) N 0,8 C 2,0 C 2,4 km/h (1 Bft)
20.01.2009 03:00 2,0 C 92 % 999,9 hPa 0,0 l/m 0,1 km/h (0 Bft) N 0,9 C 2,0 C 1,2 km/h (1 Bft)
20.01.2009 04:00 1,8 C 92 % 999,3 hPa 0,0 l/m 0,0 km/h (0 Bft) N 0,6 C 1,8 C 1,2 km/h (1 Bft)
20.01.2009 05:00 1,5 C 92 % 998,8 hPa 0,0 l/m 0,0 km/h (0 Bft) N 0,3 C 1,5 C 0,0 km/h (0 Bft)
20.01.2009 06:00 1,3 C 92 % 998,5 hPa 0,0 l/m 0,1 km/h (0 Bft) O-NO 0,1 C 1,3 C 1,2 km/h (1 Bft)
20.01.2009 07:00 1,0 C 92 % 998,4 hPa 0,0 l/m 0,6 km/h (0 Bft) N -0,2 C 1,0 C 4,0 km/h (1 Bft)
20.01.2009 08:00 0,1 C 92 % 998,4 hPa 0,0 l/m 0,4 km/h (0 Bft) N -1,0 C 0,1 C 3,2 km/h (1 Bft)
20.01.2009 09:00 1,3 C 93 % 999,1 hPa 0,0 l/m 3,8 km/h (1 Bft) N-NW 0,3 C 1,0 C 10,9 km/h (2 Bft)
20.01.2009 10:00 2,5 C 92 % 1000,0 hPa 0,0 l/m 6,5 km/h (2 Bft) N-NO 1,4 C 1,7 C 17,7 km/h (3 Bft)
20.01.2009 11:00 5,1 C 81 % 1000,5 hPa 0,0 l/m 4,6 km/h (1 Bft) N-NO 2,1 C 5,1 C 9,6 km/h (2 Bft)
20.01.2009 12:00 6,2 C 75 % 1000,6 hPa 0,0 l/m 3,7 km/h (1 Bft) N-NO 2,0 C 6,2 C 8,9 km/h (2 Bft)
20.01.2009 13:00 6,7 C 71 % 1000,5 hPa 0,0 l/m 3,3 km/h (1 Bft) N-NW 1,9 C 6,7 C 8,4 km/h (2 Bft)
20.01.2009 14:00 5,9 C 74 % 1001,0 hPa 0,0 l/m 6,6 km/h (2 Bft) NW 1,6 C 5,4 C 14,5 km/h (3 Bft)
20.01.2009 15:00 5,2 C 79 % 1001,5 hPa 0,0 l/m 3,8 km/h (1 Bft) W-NW 1,8 C 5,2 C 8,0 km/h (2 Bft)
20.01.2009 16:00 5,1 C 80 % 1002,4 hPa 0,0 l/m 4,0 km/h (1 Bft) W-SW 1,9 C 5,1 C 12,5 km/h (3 Bft)
20.01.2009 17:00 4,7 C 82 % 1003,3 hPa 0,0 l/m 1,0 km/h (0 Bft) N 2,0 C 4,7 C 4,4 km/h (1 Bft)
20.01.2009 18:00 4,0 C 85 % 1004,0 hPa 0,0 l/m 0,4 km/h (0 Bft) N 1,6 C 4,0 C 3,2 km/h (1 Bft)
20.01.2009 19:00 3,5 C 86 % 1004,1 hPa 0,0 l/m 0,0 km/h (0 Bft) N 1,3 C 3,5 C 1,6 km/h (1 Bft)
20.01.2009 20:00 2,7 C 85 % 1004,3 hPa 0,0 l/m 0,1 km/h (0 Bft) N 0,5 C 2,7 C 2,0 km/h (1 Bft)
20.01.2009 21:00 1,6 C 87 % 1004,5 hPa 0,0 l/m 0,0 km/h (0 Bft) N -0,3 C 1,6 C 0,4 km/h (0 Bft)
20.01.2009 22:00 0,5 C 88 % 1004,7 hPa 0,0 l/m 0,0 km/h (0 Bft) N -1,3 C 0,5 C 0,0 km/h (0 Bft)
20.01.2009 23:00 0,6 C 90 % 1004,1 hPa 0,0 l/m 0,0 km/h (0 Bft) N -0,9 C 0,6 C 0,4 km/h (0 Bft)
21.01.2009 00:00 1,1 C 91 % 1003,8 hPa 0,0 l/m 0,2 km/h (0 Bft) N -0,2 C 1,1 C 2,0 km/h (1 Bft)
21.01.2009 01:00 1,3 C 91 % 1003,9 hPa 0,0 l/m 0,0 km/h (0 Bft) N -0,0 C 1,3 C 0,8 km/h (0 Bft)
21.01.2009 02:00 1,2 C 91 % 1003,8 hPa 0,0 l/m 0,0 km/h (0 Bft) N -0,1 C 1,2 C 0,0 km/h (0 Bft)
21.01.2009 03:00 1,0 C 91 % 1003,7 hPa 0,0 l/m 0,0 km/h (0 Bft) N -0,3 C 1,0 C 0,4 km/h (0 Bft)
21.01.2009 04:00 0,9 C 92 % 1003,5 hPa 0,0 l/m 0,0 km/h (0 Bft) N -0,3 C 0,9 C 0,8 km/h (0 Bft)
21.01.2009 05:00 0,8 C 92 % 1003,6 hPa 0,0 l/m 0,2 km/h (0 Bft) N -0,4 C 0,8 C 2,4 km/h (1 Bft)
21.01.2009 06:00 0,8 C 92 % 1003,7 hPa 0,0 l/m 0,0 km/h (0 Bft) N -0,4 C 0,8 C 1,6 km/h (1 Bft)
21.01.2009 07:00 0,9 C 92 % 1004,3 hPa 0,0 l/m 0,2 km/h (0 Bft) N -0,2 C 0,9 C 2,8 km/h (1 Bft)
21.01.2009 08:00 0,9 C 92 % 1005,1 hPa 0,0 l/m 0,1 km/h (0 Bft) N -0,2 C 0,9 C 0,8 km/h (0 Bft)
21.01.2009 09:00 1,8 C 93 % 1005,7 hPa 0,0 l/m 0,1 km/h (0 Bft) N 0,8 C 1,8 C 1,6 km/h (1 Bft)
21.01.2009 10:00 2,7 C 93 % 1006,1 hPa 0,0 l/m 0,1 km/h (0 Bft) N 1,7 C 2,7 C 2,0 km/h (1 Bft)
21.01.2009 11:00 3,3 C 93 % 1006,2 hPa 0,0 l/m 0,9 km/h (0 Bft) N 2,3 C 3,3 C 4,0 km/h (1 Bft)
21.01.2009 12:00 3,8 C 93 % 1005,9 hPa 0,0 l/m 1,4 km/h (1 Bft) NW 2,7 C 3,8 C 5,6 km/h (1 Bft)
21.01.2009 13:00 4,1 C 90 % 1005,8 hPa 0,0 l/m 3,9 km/h (1 Bft) NW 2,5 C 4,1 C 7,6 km/h (2 Bft)
21.01.2009 14:00 3,9 C 88 % 1005,9 hPa 0,3 l/m 3,9 km/h (1 Bft) NW 2,1 C 3,9 C 9,3 km/h (2 Bft)
21.01.2009 15:00 3,8 C 89 % 1006,4 hPa 0,9 l/m 0,4 km/h (0 Bft) N-NW 2,1 C 3,8 C 3,6 km/h (1 Bft)
21.01.2009 16:00 3,4 C 89 % 1007,0 hPa 1,2 l/m 2,4 km/h (1 Bft) N-NW 1,7 C 3,4 C 6,8 km/h (2 Bft)
21.01.2009 17:00 2,7 C 90 % 1007,5 hPa 2,4 l/m 2,9 km/h (1 Bft) N-NW 1,2 C 2,7 C 6,8 km/h (2 Bft)
21.01.2009 18:00 2,3 C 90 % 1007,8 hPa 0,9 l/m 3,3 km/h (1 Bft) NW 0,8 C 2,3 C 6,8 km/h (2 Bft)
21.01.2009 19:00 2,4 C 91 % 1007,8 hPa 0,3 l/m 4,0 km/h (1 Bft) W-SW 1,1 C 2,4 C 13,3 km/h (3 Bft)
21.01.2009 20:00 2,6 C 91 % 1007,9 hPa 0,6 l/m 5,7 km/h (1 Bft) W-NW 1,2 C 2,4 C 13,3 km/h (3 Bft)
21.01.2009 21:00 2,6 C 90 % 1008,3 hPa 0,0 l/m 5,0 km/h (1 Bft) W 1,1 C 2,6 C 11,7 km/h (2 Bft)
21.01.2009 22:00 2,5 C 89 % 1008,3 hPa 0,3 l/m 5,7 km/h (1 Bft) W-NW 0,9 C 2,5 C 14,5 km/h (3 Bft)
21.01.2009 23:00 2,5 C 89 % 1008,3 hPa 0,3 l/m 6,5 km/h (2 Bft) NW 0,9 C 1,9 C 14,5 km/h (3 Bft)
22.01.2009 00:00 2,4 C 89 % 1008,4 hPa 0,3 l/m 7,8 km/h (2 Bft) NW 0,8 C 1,1 C 19,3 km/h (3 Bft)
22.01.2009 01:00 2,3 C 89 % 1008,6 hPa 0,3 l/m 5,8 km/h (2 Bft) N-NW 0,7 C 1,9 C 15,3 km/h (3 Bft)
22.01.2009 02:00 2,3 C 89 % 1009,1 hPa 0,0 l/m 5,1 km/h (1 Bft) NW 0,6 C 2,2 C 13,3 km/h (3 Bft)
22.01.2009 03:00 2,0 C 90 % 1009,3 hPa 0,3 l/m 6,3 km/h (2 Bft) N-NW 0,5 C 1,8 C 14,9 km/h (3 Bft)
22.01.2009 04:00 2,1 C 90 % 1009,3 hPa 0,3 l/m 8,3 km/h (2 Bft) W 0,6 C 0,4 C 19,3 km/h (3 Bft)
22.01.2009 05:00 2,2 C 89 % 1009,3 hPa 0,0 l/m 9,1 km/h (2 Bft) NW 0,5 C -0,3 C 20,1 km/h (4 Bft)
22.01.2009 06:00 2,3 C 88 % 1009,5 hPa 0,0 l/m 8,0 km/h (2 Bft) W-NW 0,5 C 0,7 C 20,5 km/h (4 Bft)
22.01.2009 07:00 2,4 C 87 % 1009,8 hPa 0,0 l/m 6,7 km/h (2 Bft) NW 0,4 C 2,0 C 16,5 km/h (3 Bft)
22.01.2009 08:00 2,7 C 85 % 1009,6 hPa 0,0 l/m 7,0 km/h (2 Bft) W-SW 0,4 C 2,0 C 17,3 km/h (3 Bft)
22.01.2009 09:00 3,0 C 84 % 1009,5 hPa 0,0 l/m 6,8 km/h (2 Bft) NW 0,5 C 2,7 C 16,5 km/h (3 Bft)
22.01.2009 10:00 3,6 C 82 % 1009,2 hPa 0,0 l/m 7,2 km/h (2 Bft) W-NW 0,8 C 2,8 C 17,3 km/h (3 Bft)
22.01.2009 11:00 4,2 C 79 % 1008,8 hPa 0,0 l/m 7,8 km/h (2 Bft) NW 0,9 C 2,9 C 18,1 km/h (3 Bft)
22.01.2009 12:00 4,3 C 79 % 1008,2 hPa 0,0 l/m 8,4 km/h (2 Bft) NW 0,9 C 2,5 C 17,3 km/h (3 Bft)
22.01.2009 13:00 4,6 C 76 % 1007,5 hPa 0,0 l/m 7,9 km/h (2 Bft) W 0,7 C 3,4 C 15,7 km/h (3 Bft)
22.01.2009 14:00 4,7 C 77 % 1007,6 hPa 0,0 l/m 6,4 km/h (2 Bft) N 0,9 C 4,0 C 16,1 km/h (3 Bft)
22.01.2009 15:00 4,5 C 75 % 1007,4 hPa 0,0 l/m 2,6 km/h (1 Bft) W-NW 0,4 C 4,5 C 7,0 km/h (2 Bft)
22.01.2009 16:00 3,9 C 74 % 1006,7 hPa 0,0 l/m 0,1 km/h (0 Bft) N -0,3 C 3,9 C 1,2 km/h (1 Bft)
22.01.2009 17:00 2,0 C 79 % 1006,3 hPa 0,0 l/m 0,3 km/h (0 Bft) N -1,4 C 2,0 C 2,8 km/h (1 Bft)
22.01.2009 18:00 0,3 C 83 % 1006,0 hPa 0,0 l/m 0,1 km/h (0 Bft) N -2,2 C 0,3 C 0,8 km/h (0 Bft)
22.01.2009 19:00 -0,3 C 86 % 1005,5 hPa 0,0 l/m 0,1 km/h (0 Bft) N -2,4 C -0,3 C 1,6 km/h (1 Bft)
22.01.2009 20:00 -0,2 C 88 % 1005,3 hPa 0,0 l/m 0,0 km/h (0 Bft) N -1,9 C -0,2 C 0,0 km/h (0 Bft)
22.01.2009 21:00 0,1 C 89 % 1004,8 hPa 0,0 l/m 0,0 km/h (0 Bft) N -1,5 C 0,1 C 0,0 km/h (0 Bft)
22.01.2009 22:00 0,3 C 90 % 1003,9 hPa 0,0 l/m 0,0 km/h (0 Bft) N -1,1 C 0,3 C 0,0 km/h (0 Bft)
22.01.2009 23:00 0,2 C 90 % 1003,1 hPa 0,0 l/m 0,0 km/h (0 Bft) N -1,3 C 0,2 C 0,4 km/h (0 Bft)
23.01.2009 00:00 -0,1 C 90 % 1002,8 hPa 0,0 l/m 0,0 km/h (0 Bft) N -1,5 C -0,1 C 0,8 km/h (0 Bft)
23.01.2009 01:00 0,3 C 91 % 1002,3 hPa 0,0 l/m 0,1 km/h (0 Bft) N -1,0 C 0,3 C 1,6 km/h (1 Bft)
23.01.2009 02:00 0,3 C 91 % 1001,5 hPa 0,0 l/m 0,0 km/h (0 Bft) N -1,0 C 0,3 C 0,4 km/h (0 Bft)
23.01.2009 03:00 0,3 C 91 % 1000,5 hPa 0,0 l/m 0,1 km/h (0 Bft) N -1,0 C 0,3 C 1,6 km/h (1 Bft)
23.01.2009 04:00 0,2 C 92 % 999,5 hPa 0,0 l/m 0,0 km/h (0 Bft) N -1,0 C 0,2 C 0,8 km/h (0 Bft)
23.01.2009 05:00 0,2 C 92 % 998,7 hPa 0,0 l/m 0,0 km/h (0 Bft) N -1,0 C 0,2 C 1,2 km/h (1 Bft)
23.01.2009 06:00 0,2 C 92 % 998,1 hPa 0,0 l/m 0,8 km/h (0 Bft) O -0,9 C 0,2 C 4,8 km/h (1 Bft)
23.01.2009 07:00 0,4 C 92 % 997,5 hPa 0,0 l/m 1,3 km/h (1 Bft) O-SO -0,7 C 0,4 C 6,8 km/h (2 Bft)
23.01.2009 08:00 0,5 C 92 % 996,9 hPa 0,0 l/m 1,0 km/h (0 Bft) O-SO -0,6 C 0,5 C 5,6 km/h (1 Bft)
23.01.2009 09:00 1,1 C 92 % 995,7 hPa 0,0 l/m 2,0 km/h (1 Bft) O -0,0 C 1,1 C 6,8 km/h (2 Bft)
23.01.2009 10:00 2,3 C 90 % 993,8 hPa 0,0 l/m 2,6 km/h (1 Bft) SO 0,8 C 2,3 C 9,3 km/h (2 Bft)
23.01.2009 11:00 4,0 C 83 % 991,2 hPa 0,0 l/m 4,6 km/h (1 Bft) O 1,3 C 4,0 C 16,5 km/h (3 Bft)
23.01.2009 12:00 4,6 C 81 % 989,0 hPa 0,0 l/m 6,1 km/h (2 Bft) S-SO 1,6 C 4,4 C 17,7 km/h (3 Bft)
23.01.2009 13:00 5,8 C 78 % 986,5 hPa 0,0 l/m 6,0 km/h (2 Bft) SO 2,2 C 5,4 C 20,5 km/h (4 Bft)
23.01.2009 14:00 5,8 C 77 % 984,9 hPa 0,0 l/m 8,4 km/h (2 Bft) S-SO 2,0 C 4,1 C 27,0 km/h (4 Bft)
23.01.2009 15:00 4,6 C 80 % 983,8 hPa 0,0 l/m 7,3 km/h (2 Bft) S 1,5 C 3,8 C 22,5 km/h (4 Bft)
23.01.2009 16:00 3,2 C 84 % 983,0 hPa 0,0 l/m 7,8 km/h (2 Bft) S-SO 0,7 C 1,9 C 24,9 km/h (4 Bft)
23.01.2009 17:00 3,0 C 84 % 983,1 hPa 0,0 l/m 4,8 km/h (1 Bft) NO 0,5 C 3,0 C 17,3 km/h (3 Bft)
23.01.2009 18:00 3,1 C 84 % 983,1 hPa 0,0 l/m 3,6 km/h (1 Bft) S-SO 0,7 C 3,1 C 12,5 km/h (3 Bft)
23.01.2009 19:00 3,3 C 84 % 983,9 hPa 0,9 l/m 0,9 km/h (0 Bft) S-SO 0,8 C 3,3 C 5,6 km/h (1 Bft)
23.01.2009 20:00 2,9 C 87 % 985,4 hPa 5,7 l/m 0,9 km/h (0 Bft) N-NO 1,0 C 2,9 C 4,8 km/h (1 Bft)
23.01.2009 21:00 2,6 C 89 % 986,3 hPa 2,7 l/m 0,0 km/h (0 Bft) N 1,0 C 2,6 C 0,8 km/h (0 Bft)
23.01.2009 22:00 2,3 C 90 % 986,3 hPa 0,9 l/m 0,0 km/h (0 Bft) N 0,9 C 2,3 C 0,4 km/h (0 Bft)
23.01.2009 23:00 2,0 C 91 % 986,7 hPa 0,0 l/m 0,4 km/h (0 Bft) O 0,7 C 2,0 C 2,8 km/h (1 Bft)
24.01.2009 00:00 4,8 C 87 % 985,9 hPa 0,0 l/m 10,1 km/h (2 Bft) W 2,7 C 1,4 C 25,0 km/h (4 Bft)
24.01.2009 01:00 6,6 C 72 % 985,5 hPa 0,0 l/m 15,0 km/h (3 Bft) W 2,0 C 1,1 C 35,4 km/h (5 Bft)
24.01.2009 02:00 6,2 C 71 % 986,0 hPa 0,0 l/m 15,6 km/h (3 Bft) W 1,4 C 0,4 C 31,4 km/h (5 Bft)
24.01.2009 03:00 6,1 C 67 % 986,0 hPa 0,0 l/m 16,7 km/h (3 Bft) W 0,4 C -0,4 C 34,6 km/h (5 Bft)
24.01.2009 04:00 6,2 C 64 % 986,7 hPa 0,0 l/m 16,3 km/h (3 Bft) W -0,1 C 0,0 C 37,8 km/h (5 Bft)
24.01.2009 05:00 5,9 C 63 % 987,3 hPa 0,0 l/m 13,6 km/h (3 Bft) W-SW -0,7 C 0,9 C 34,6 km/h (5 Bft)
24.01.2009 06:00 5,5 C 62 % 987,3 hPa 0,0 l/m 18,0 km/h (3 Bft) W-NW -1,3 C -1,6 C 39,4 km/h (6 Bft)
24.01.2009 07:00 5,4 C 60 % 988,2 hPa 0,0 l/m 14,7 km/h (3 Bft) W-NW -1,7 C -0,2 C 35,0 km/h (5 Bft)
24.01.2009 08:00 5,2 C 61 % 989,5 hPa 0,0 l/m 6,8 km/h (2 Bft) NW -1,7 C 4,7 C 18,1 km/h (3 Bft)
24.01.2009 09:00 5,4 C 60 % 990,3 hPa 0,0 l/m 6,3 km/h (2 Bft) W -1,7 C 5,3 C 16,1 km/h (3 Bft)
24.01.2009 10:00 5,9 C 58 % 990,5 hPa 0,0 l/m 6,8 km/h (2 Bft) NW -1,7 C 5,5 C 18,5 km/h (3 Bft)
24.01.2009 11:00 6,6 C 55 % 990,1 hPa 0,0 l/m 5,6 km/h (1 Bft) NW -1,9 C 6,6 C 13,7 km/h (3 Bft)
24.01.2009 12:00 7,7 C 48 % 989,1 hPa 0,0 l/m 4,5 km/h (1 Bft) SW -2,6 C 7,7 C 12,9 km/h (3 Bft)
24.01.2009 13:00 8,2 C 47 % 988,8 hPa 0,0 l/m 1,8 km/h (1 Bft) O -2,6 C 8,2 C 8,0 km/h (2 Bft)
24.01.2009 14:00 8,3 C 47 % 989,0 hPa 0,0 l/m 2,2 km/h (1 Bft) O-SO -2,5 C 8,3 C 9,6 km/h (2 Bft)
24.01.2009 15:00 7,6 C 54 % 989,4 hPa 0,0 l/m 1,7 km/h (1 Bft) S-SO -1,1 C 7,6 C 8,1 km/h (2 Bft)
24.01.2009 16:00 6,0 C 67 % 990,0 hPa 0,0 l/m 0,3 km/h (0 Bft) N 0,3 C 6,0 C 3,6 km/h (1 Bft)
24.01.2009 17:00 4,0 C 75 % 990,9 hPa 0,0 l/m 0,1 km/h (0 Bft) N -0,0 C 4,0 C 2,4 km/h (1 Bft)
24.01.2009 18:00 3,8 C 77 % 991,6 hPa 0,0 l/m 0,4 km/h (0 Bft) S 0,1 C 3,8 C 3,6 km/h (1 Bft)
24.01.2009 19:00 3,6 C 77 % 991,9 hPa 0,0 l/m 1,5 km/h (1 Bft) S -0,1 C 3,6 C 5,6 km/h (1 Bft)
24.01.2009 20:00 2,8 C 76 % 992,6 hPa 0,0 l/m 0,3 km/h (0 Bft) N -1,1 C 2,8 C 1,6 km/h (1 Bft)
24.01.2009 21:00 0,7 C 80 % 993,4 hPa 0,0 l/m 0,0 km/h (0 Bft) N -2,4 C 0,7 C 0,4 km/h (0 Bft)
24.01.2009 22:00 -0,3 C 83 % 994,4 hPa 0,0 l/m 0,0 km/h (0 Bft) N -2,8 C -0,3 C 1,2 km/h (1 Bft)
24.01.2009 23:00 -0,4 C 87 % 995,4 hPa 0,0 l/m 0,0 km/h (0 Bft) N -2,3 C -0,4 C 0,4 km/h (0 Bft)
25.01.2009 00:00 0,6 C 89 % 996,4 hPa 0,0 l/m 0,0 km/h (0 Bft) N -1,0 C 0,6 C 0,4 km/h (0 Bft)
25.01.2009 01:00 1,5 C 90 % 997,3 hPa 0,0 l/m 0,4 km/h (0 Bft) N 0,0 C 1,5 C 2,8 km/h (1 Bft)
25.01.2009 02:00 2,1 C 89 % 998,1 hPa 0,0 l/m 2,3 km/h (1 Bft) W 0,4 C 2,1 C 6,8 km/h (2 Bft)
25.01.2009 03:00 2,5 C 84 % 999,0 hPa 0,0 l/m 4,1 km/h (1 Bft) W 0,0 C 2,5 C 11,3 km/h (2 Bft)
25.01.2009 04:00 2,7 C 81 % 999,7 hPa 0,0 l/m 4,7 km/h (1 Bft) W -0,2 C 2,7 C 12,5 km/h (3 Bft)
25.01.2009 05:00 3,1 C 77 % 1000,2 hPa 0,0 l/m 7,6 km/h (2 Bft) W-NW -0,5 C 2,0 C 18,1 km/h (3 Bft)
25.01.2009 06:00 3,0 C 74 % 1000,9 hPa 0,0 l/m 7,2 km/h (2 Bft) W-NW -1,3 C 2,2 C 18,9 km/h (3 Bft)
25.01.2009 07:00 2,9 C 73 % 1001,7 hPa 0,0 l/m 7,4 km/h (2 Bft) W-NW -1,4 C 1,9 C 16,9 km/h (3 Bft)
25.01.2009 08:00 3,1 C 74 % 1002,5 hPa 0,0 l/m 8,0 km/h (2 Bft) W -1,2 C 1,6 C 20,5 km/h (4 Bft)
25.01.2009 09:00 3,8 C 71 % 1002,9 hPa 0,0 l/m 6,5 km/h (2 Bft) W-NW -1,0 C 3,4 C 15,7 km/h (3 Bft)
25.01.2009 10:00 4,5 C 66 % 1003,2 hPa 0,0 l/m 8,1 km/h (2 Bft) W-SW -1,3 C 3,0 C 19,3 km/h (3 Bft)
25.01.2009 11:00 5,3 C 62 % 1003,0 hPa 0,0 l/m 9,4 km/h (2 Bft) NW -1,4 C 2,9 C 19,7 km/h (3 Bft)
25.01.2009 12:00 5,7 C 59 % 1002,6 hPa 0,0 l/m 8,8 km/h (2 Bft) NW -1,7 C 3,7 C 20,1 km/h (4 Bft)
25.01.2009 13:00 5,6 C 56 % 1002,0 hPa 0,0 l/m 8,7 km/h (2 Bft) W-NW -2,4 C 3,7 C 22,5 km/h (4 Bft)
25.01.2009 14:00 5,5 C 56 % 1001,6 hPa 0,0 l/m 6,1 km/h (2 Bft) NW -2,6 C 5,3 C 14,5 km/h (3 Bft)
25.01.2009 15:00 5,2 C 57 % 1001,6 hPa 0,0 l/m 5,7 km/h (1 Bft) NW -2,6 C 5,1 C 13,3 km/h (3 Bft)
25.01.2009 16:00 4,1 C 59 % 1001,8 hPa 0,0 l/m 2,7 km/h (1 Bft) N-NW -3,2 C 4,1 C 6,8 km/h (2 Bft)
25.01.2009 17:00 1,4 C 69 % 1002,1 hPa 0,0 l/m 0,0 km/h (0 Bft) N -3,7 C 1,4 C 0,0 km/h (0 Bft)
25.01.2009 18:00 -0,2 C 77 % 1002,4 hPa 0,0 l/m 0,1 km/h (0 Bft) N -3,7 C -0,2 C 2,0 km/h (1 Bft)
25.01.2009 19:00 -0,8 C 79 % 1002,6 hPa 0,0 l/m 0,0 km/h (0 Bft) N -4,0 C -0,8 C 0,8 km/h (0 Bft)
25.01.2009 20:00 -1,9 C 84 % 1002,6 hPa 0,0 l/m 0,0 km/h (0 Bft) N -4,3 C -1,9 C 0,4 km/h (0 Bft)
25.01.2009 21:00 -2,0 C 85 % 1002,7 hPa 0,0 l/m 0,2 km/h (0 Bft) N -4,2 C -2,0 C 2,8 km/h (1 Bft)
25.01.2009 22:00 -1,7 C 85 % 1002,6 hPa 0,0 l/m 0,1 km/h (0 Bft) N -3,9 C -1,7 C 2,0 km/h (1 Bft)
25.01.2009 23:00 -1,0 C 86 % 1002,3 hPa 0,0 l/m 0,0 km/h (0 Bft) N -3,0 C -1,0 C 0,8 km/h (0 Bft)
Min-Datum _ 19.01.09 24.01.09 23.01.09 - 19.01.09 - 25.01.09 19.01.09 19.01.09
_ Min-Zeit 01:15 13:15 16:30 - 07:45 - 19:45 04:15 08:00
Minimum _ -3,0 C 44 % 982,7 hPa - 0,0 km/h (0 Bft) - -4,7 C -4,0 C 0,0 km/h (0 Bft)
Max-Datum _ 24.01.09 19.01.09 19.01.09 23.01.09 19.01.09 - 24.01.09 24.01.09 19.01.09
_ Max-Zeit 14:15 02:45 08:30 20:30 04:15 - 00:30 14:15 04:15
Maximum _ 8,6 C 95 % 1013,0 hPa 5,7 l/m 23,6 km/h
W (4 Bft)
- 3,6 C 8,6 C 51,5 km/h
W (7 Bft)
Durchschnitt _ 2,8 C 81 % 1000,7 hPa #18,6 l/m 3,5 km/h (1 Bft) NW -0,3 C 2,2 C 9,6 km/h (2 Bft)